createdAt,value
2023-09-23T00:04:35.148Z,14.70
2023-09-23T00:09:40.254Z,14.90
2023-09-23T00:14:42.831Z,14.90
2023-09-23T00:19:44.618Z,15.00
2023-09-23T00:24:46.576Z,14.60
2023-09-23T00:29:48.738Z,14.80
2023-09-23T00:34:50.511Z,14.90
2023-09-23T00:39:52.856Z,14.80
2023-09-23T00:44:54.568Z,14.60
2023-09-23T00:49:56.342Z,14.20
2023-09-23T00:54:58.119Z,13.90
2023-09-23T00:59:59.824Z,13.80
2023-09-23T01:05:01.651Z,13.90
2023-09-23T01:10:04.528Z,13.80
2023-09-23T01:15:09.841Z,13.70
2023-09-23T01:20:15.099Z,13.80
2023-09-23T01:25:18.182Z,13.50
2023-09-23T01:30:23.067Z,13.70
2023-09-23T01:35:25.063Z,13.70
2023-09-23T01:40:30.373Z,13.70
2023-09-23T01:45:33.048Z,13.50
2023-09-23T01:50:34.814Z,13.70
2023-09-23T01:55:38.078Z,14.30
2023-09-23T02:00:40.340Z,13.80
2023-09-23T02:05:43.033Z,13.50
2023-09-23T02:10:47.048Z,13.40
2023-09-23T02:15:48.882Z,13.20
2023-09-23T02:20:51.360Z,13.10
2023-09-23T02:25:54.007Z,12.90
2023-09-23T02:30:55.889Z,13.00
2023-09-23T02:36:01.872Z,13.20
2023-09-23T02:41:06.595Z,13.20
2023-09-23T02:46:08.838Z,13.20
2023-09-23T02:51:14.073Z,12.80
2023-09-23T02:56:17.020Z,12.90
2023-09-23T03:01:19.988Z,13.00
2023-09-23T03:06:23.150Z,12.30
2023-09-23T03:11:28.026Z,12.20
2023-09-23T03:16:30.364Z,12.10
2023-09-23T03:21:32.565Z,12.60
2023-09-23T03:26:34.308Z,12.80
2023-09-23T03:31:36.208Z,12.90
2023-09-23T03:36:39.301Z,13.40
2023-09-23T03:41:45.262Z,13.50
2023-09-23T03:46:48.251Z,13.50
2023-09-23T03:51:49.993Z,13.50
2023-09-23T03:56:51.829Z,13.60
2023-09-23T04:01:53.752Z,13.80
2023-09-23T04:06:56.718Z,13.70
2023-09-23T04:11:58.414Z,13.50
2023-09-23T04:17:00.134Z,13.00
2023-09-23T04:22:02.054Z,13.00
2023-09-23T04:27:03.817Z,13.00
2023-09-23T04:32:05.738Z,13.40
2023-09-23T04:37:07.497Z,13.40
2023-09-23T04:42:10.097Z,13.30
2023-09-23T04:47:13.872Z,13.50
2023-09-23T04:52:18.017Z,13.70
2023-09-23T04:57:20.012Z,13.30
2023-09-23T05:02:22.345Z,12.90
2023-09-23T05:07:28.201Z,13.10
2023-09-23T05:12:30.638Z,12.70
2023-09-23T05:17:32.571Z,13.00
2023-09-23T05:22:34.429Z,13.00
2023-09-23T05:27:36.178Z,13.20
2023-09-23T05:32:40.624Z,12.90
2023-09-23T05:37:42.848Z,12.90
2023-09-23T05:42:44.537Z,12.90
2023-09-23T05:47:46.886Z,12.90
2023-09-23T05:52:49.133Z,12.70
2023-09-23T05:57:50.854Z,12.60
2023-09-23T06:02:52.788Z,12.90
2023-09-23T06:07:54.644Z,12.80
2023-09-23T06:12:56.471Z,12.80
2023-09-23T06:17:58.419Z,12.80
2023-09-23T06:23:00.416Z,12.90
2023-09-23T06:28:02.184Z,13.00
2023-09-23T06:33:04.885Z,13.40
2023-09-23T06:38:06.629Z,13.80
2023-09-23T06:43:08.736Z,13.80
2023-09-23T06:48:10.460Z,14.00
2023-09-23T06:53:12.201Z,14.10
2023-09-23T06:58:13.949Z,14.40
2023-09-23T07:03:15.876Z,14.40
2023-09-23T07:08:17.855Z,14.40
2023-09-23T07:13:20.483Z,14.20
2023-09-23T07:18:22.328Z,14.60
2023-09-23T07:23:24.355Z,15.00
2023-09-23T07:28:26.196Z,15.10
2023-09-23T07:33:28.497Z,15.40
2023-09-23T07:38:30.329Z,15.70
2023-09-23T07:43:33.094Z,15.90
2023-09-23T07:48:34.848Z,16.20
2023-09-23T07:53:36.510Z,16.70
2023-09-23T07:58:38.209Z,16.80
2023-09-23T08:03:39.915Z,16.80
2023-09-23T08:08:41.775Z,16.70
2023-09-23T08:13:43.727Z,17.10
2023-09-23T08:18:45.445Z,18.20
2023-09-23T08:23:47.272Z,19.00
2023-09-23T08:28:49.282Z,19.70
2023-09-23T08:33:51.322Z,19.00
2023-09-23T08:38:53.166Z,19.20
2023-09-23T08:43:55.855Z,19.00
2023-09-23T08:48:59.641Z,19.10
2023-09-23T08:54:01.550Z,18.40
2023-09-23T08:59:04.564Z,18.70
2023-09-23T09:04:06.701Z,19.10
2023-09-23T09:09:08.766Z,19.20
2023-09-23T09:14:11.807Z,18.90
2023-09-23T09:19:14.094Z,19.10
2023-09-23T09:24:15.974Z,19.00
2023-09-23T09:29:17.853Z,19.00
2023-09-23T09:34:25.465Z,19.10
2023-09-23T09:39:30.226Z,19.60
2023-09-23T09:44:33.065Z,20.20
2023-09-23T09:49:35.964Z,20.60
2023-09-23T09:54:38.095Z,20.30
2023-09-23T09:59:42.954Z,21.70
2023-09-23T10:04:50.203Z,23.00
2023-09-23T10:09:56.459Z,23.10
2023-09-23T10:15:03.058Z,21.70
2023-09-23T10:20:14.262Z,21.90
2023-09-23T10:25:16.012Z,22.00
2023-09-23T10:30:23.357Z,23.30
2023-09-23T10:35:25.485Z,22.60
2023-09-23T10:40:27.272Z,24.90
2023-09-23T10:45:29.023Z,26.00
2023-09-23T10:50:30.922Z,27.80
2023-09-23T10:55:32.728Z,25.20
2023-09-23T11:00:34.832Z,23.00
2023-09-23T11:05:41.021Z,22.40
2023-09-23T11:10:45.358Z,24.80
2023-09-23T11:15:47.133Z,25.20
2023-09-23T11:20:49.125Z,25.30
2023-09-23T11:25:51.887Z,26.20
2023-09-23T11:30:55.208Z,26.20
2023-09-23T11:35:58.451Z,27.60
2023-09-23T11:41:01.614Z,28.10
2023-09-23T11:46:03.739Z,29.10
2023-09-23T11:51:05.872Z,29.20
2023-09-23T11:56:07.621Z,29.40
2023-09-23T12:01:09.399Z,26.30
2023-09-23T12:06:11.173Z,26.30
2023-09-23T12:11:13.140Z,28.30
2023-09-23T12:16:15.088Z,29.40
2023-09-23T12:21:17.309Z,27.30
2023-09-23T12:26:19.925Z,25.40
2023-09-23T12:31:21.736Z,23.70
2023-09-23T12:36:24.399Z,24.00
2023-09-23T12:41:26.138Z,23.50
2023-09-23T12:46:27.894Z,23.30
2023-09-23T12:51:29.579Z,23.30
2023-09-23T12:56:31.362Z,22.90
2023-09-23T13:01:34.231Z,22.40
2023-09-23T13:06:36.499Z,22.20
2023-09-23T13:11:38.358Z,21.60
2023-09-23T13:16:40.305Z,21.30
2023-09-23T13:21:42.519Z,20.60
2023-09-23T13:26:45.185Z,20.30
2023-09-23T13:31:46.973Z,19.80
2023-09-23T13:36:48.709Z,19.90
2023-09-23T13:41:53.144Z,20.70
2023-09-23T13:46:55.083Z,22.90
2023-09-23T13:51:58.615Z,23.90
2023-09-23T13:57:00.296Z,24.00
2023-09-23T14:02:02.969Z,24.10
2023-09-23T14:07:04.685Z,24.80
2023-09-23T14:12:07.491Z,24.60
2023-09-23T14:17:12.005Z,25.70
2023-09-23T14:22:13.879Z,25.50
2023-09-23T14:27:15.641Z,24.10
2023-09-23T14:32:17.372Z,23.30
2023-09-23T14:37:19.098Z,22.70
2023-09-23T14:42:21.328Z,22.30
2023-09-23T14:47:23.251Z,23.00
2023-09-23T14:52:25.149Z,23.30
2023-09-23T14:57:27.864Z,22.90
2023-09-23T15:02:29.812Z,22.90
2023-09-23T15:07:32.308Z,22.70
2023-09-23T15:12:34.341Z,22.60
2023-09-23T15:17:39.473Z,22.80
2023-09-23T15:22:42.128Z,23.10
2023-09-23T15:27:44.009Z,22.70
2023-09-23T15:32:48.099Z,22.10
2023-09-23T15:37:50.185Z,21.60
2023-09-23T15:42:51.904Z,21.20
2023-09-23T15:47:53.671Z,21.00
2023-09-23T15:52:55.453Z,20.80
2023-09-23T15:57:57.332Z,20.60
2023-09-23T16:03:01.285Z,20.50
2023-09-23T16:08:03.957Z,20.50
2023-09-23T16:13:05.855Z,20.20
2023-09-23T16:18:07.929Z,20.20
2023-09-23T16:23:09.841Z,20.10
2023-09-23T16:28:11.573Z,19.90
2023-09-23T16:33:13.639Z,19.80
2023-09-23T16:38:16.122Z,20.00
2023-09-23T16:43:18.134Z,20.00
2023-09-23T16:48:19.939Z,19.90
2023-09-23T16:53:21.708Z,19.70
2023-09-23T16:58:23.963Z,19.40
2023-09-23T17:03:25.877Z,19.30
2023-09-23T17:08:29.232Z,19.20
2023-09-23T17:13:32.095Z,19.00
2023-09-23T17:18:33.978Z,18.70
2023-09-23T17:23:35.840Z,18.60
2023-09-23T17:28:37.592Z,18.50
2023-09-23T17:33:39.517Z,18.70
2023-09-23T17:38:41.456Z,18.60
2023-09-23T17:43:43.613Z,18.40
2023-09-23T17:48:45.419Z,18.80
2023-09-23T17:53:47.359Z,18.60
2023-09-23T17:58:50.205Z,18.40
2023-09-23T18:03:52.278Z,17.90
2023-09-23T18:08:54.433Z,17.70
2023-09-23T18:13:57.590Z,17.70
2023-09-23T18:18:59.392Z,17.40
2023-09-23T18:24:01.229Z,17.00
2023-09-23T18:29:03.513Z,17.00
2023-09-23T18:34:05.544Z,16.50
2023-09-23T18:39:07.428Z,16.40
2023-09-23T18:44:09.280Z,16.60
2023-09-23T18:49:11.320Z,16.30
2023-09-23T18:54:13.043Z,16.60
2023-09-23T18:59:14.969Z,16.40
2023-09-23T19:04:17.594Z,16.10
2023-09-23T19:09:19.874Z,16.40
2023-09-23T19:14:22.459Z,16.60
2023-09-23T19:19:24.309Z,16.90
2023-09-23T19:24:25.990Z,16.50
2023-09-23T19:29:27.877Z,16.40
2023-09-23T19:34:30.357Z,16.40
2023-09-23T19:39:37.901Z,16.30
2023-09-23T19:44:39.855Z,16.40
2023-09-23T19:49:41.712Z,16.60
2023-09-23T19:54:43.408Z,16.60
2023-09-23T19:59:45.207Z,16.60
2023-09-23T20:04:47.258Z,16.40
2023-09-23T20:09:48.988Z,16.10
2023-09-23T20:14:50.741Z,16.20
2023-09-23T20:19:52.453Z,15.70
2023-09-23T20:24:54.219Z,15.80
2023-09-23T20:30:06.334Z,15.70
2023-09-23T20:35:13.122Z,15.80
2023-09-23T20:40:16.892Z,15.60
2023-09-23T20:45:18.868Z,15.60
2023-09-23T20:50:20.872Z,15.60
2023-09-23T20:55:22.882Z,15.60
2023-09-23T21:00:24.594Z,15.90
2023-09-23T21:05:28.555Z,15.60
2023-09-23T21:10:30.839Z,15.30
2023-09-23T21:15:32.607Z,15.20
2023-09-23T21:20:34.318Z,15.30
2023-09-23T21:25:36.137Z,15.40
2023-09-23T21:30:37.893Z,15.20
2023-09-23T21:35:40.728Z,15.00
2023-09-23T21:40:43.985Z,14.90
2023-09-23T21:45:45.765Z,14.80
2023-09-23T21:50:56.328Z,15.00
2023-09-23T21:56:04.353Z,14.90
2023-09-23T22:01:08.116Z,14.60
2023-09-23T22:06:09.993Z,14.50
2023-09-23T22:11:11.813Z,14.30
2023-09-23T22:16:13.665Z,14.40
2023-09-23T22:21:15.380Z,14.00
2023-09-23T22:26:17.300Z,14.10
2023-09-23T22:31:26.518Z,13.90
2023-09-23T22:36:28.338Z,14.00
2023-09-23T22:41:31.464Z,13.90
2023-09-23T22:46:33.203Z,13.70
2023-09-23T22:51:34.931Z,13.60
2023-09-23T22:56:37.025Z,14.10
2023-09-23T23:01:38.866Z,14.00
2023-09-23T23:06:40.660Z,13.90
2023-09-23T23:11:43.015Z,13.40
2023-09-23T23:16:46.012Z,13.40
2023-09-23T23:21:48.003Z,13.40
2023-09-23T23:26:49.728Z,13.20
2023-09-23T23:31:51.487Z,13.10
2023-09-23T23:36:53.438Z,13.20
2023-09-23T23:41:55.199Z,13.60
2023-09-23T23:46:57.439Z,13.30
2023-09-23T23:51:59.155Z,12.90
2023-09-23T23:57:00.957Z,13.00
